sensor_id;sensor_type;location;lat;lon;timestamp;temperature;humidity
11650;DHT22;5881;48.522;7.682;2023-09-12T00:00:48;20.10;99.90
11650;DHT22;5881;48.522;7.682;2023-09-12T00:03:14;20.20;99.90
11650;DHT22;5881;48.522;7.682;2023-09-12T00:05:39;20.10;99.90
11650;DHT22;5881;48.522;7.682;2023-09-12T00:08:06;20.10;99.90
11650;DHT22;5881;48.522;7.682;2023-09-12T00:10:32;20.00;99.90
11650;DHT22;5881;48.522;7.682;2023-09-12T00:12:58;20.00;99.90
11650;DHT22;5881;48.522;7.682;2023-09-12T00:15:26;19.90;99.90
11650;DHT22;5881;48.522;7.682;2023-09-12T00:17:51;20.00;1.00
11650;DHT22;5881;48.522;7.682;2023-09-12T00:20:17;20.00;1.00
11650;DHT22;5881;48.522;7.682;2023-09-12T00:22:43;20.10;1.00
11650;DHT22;5881;48.522;7.682;2023-09-12T00:25:08;20.00;1.00
11650;DHT22;5881;48.522;7.682;2023-09-12T00:27:34;20.00;1.00
11650;DHT22;5881;48.522;7.682;2023-09-12T00:29:59;20.00;1.00
11650;DHT22;5881;48.522;7.682;2023-09-12T00:32:25;20.00;1.00
11650;DHT22;5881;48.522;7.682;2023-09-12T00:34:50;20.00;1.00
11650;DHT22;5881;48.522;7.682;2023-09-12T00:37:16;20.00;1.00
11650;DHT22;5881;48.522;7.682;2023-09-12T00:39:42;19.90;1.00
11650;DHT22;5881;48.522;7.682;2023-09-12T00:42:07;19.90;1.00
11650;DHT22;5881;48.522;7.682;2023-09-12T00:44:33;19.90;1.00
11650;DHT22;5881;48.522;7.682;2023-09-12T00:47:00;19.80;1.00
11650;DHT22;5881;48.522;7.682;2023-09-12T00:49:27;19.90;1.00
11650;DHT22;5881;48.522;7.682;2023-09-12T00:51:54;19.90;1.00
11650;DHT22;5881;48.522;7.682;2023-09-12T00:54:20;19.90;1.00
11650;DHT22;5881;48.522;7.682;2023-09-12T00:56:46;19.90;1.00
11650;DHT22;5881;48.522;7.682;2023-09-12T00:59:12;19.90;1.00
11650;DHT22;5881;48.522;7.682;2023-09-12T01:01:38;19.90;26.20
11650;DHT22;5881;48.522;7.682;2023-09-12T01:04:04;19.90;97.40
11650;DHT22;5881;48.522;7.682;2023-09-12T01:06:31;19.90;99.90
11650;DHT22;5881;48.522;7.682;2023-09-12T01:08:59;20.00;99.90
11650;DHT22;5881;48.522;7.682;2023-09-12T01:11:25;20.00;99.90
11650;DHT22;5881;48.522;7.682;2023-09-12T01:13:51;19.90;99.90
11650;DHT22;5881;48.522;7.682;2023-09-12T01:16:17;19.90;99.90
11650;DHT22;5881;48.522;7.682;2023-09-12T01:18:43;19.90;1.00
11650;DHT22;5881;48.522;7.682;2023-09-12T01:21:26;19.90;1.00
11650;DHT22;5881;48.522;7.682;2023-09-12T01:29:12;19.80;1.00
11650;DHT22;5881;48.522;7.682;2023-09-12T01:31:39;19.80;1.00
11650;DHT22;5881;48.522;7.682;2023-09-12T01:34:12;19.80;1.00
11650;DHT22;5881;48.522;7.682;2023-09-12T01:36:38;19.70;1.00
11650;DHT22;5881;48.522;7.682;2023-09-12T01:39:04;19.70;1.00
11650;DHT22;5881;48.522;7.682;2023-09-12T01:41:32;19.70;1.00
11650;DHT22;5881;48.522;7.682;2023-09-12T01:44:00;19.70;55.00
11650;DHT22;5881;48.522;7.682;2023-09-12T01:46:27;19.70;25.90
11650;DHT22;5881;48.522;7.682;2023-09-12T01:48:54;19.90;1.00
11650;DHT22;5881;48.522;7.682;2023-09-12T01:51:22;19.90;1.00
11650;DHT22;5881;48.522;7.682;2023-09-12T01:53:49;19.80;1.00
11650;DHT22;5881;48.522;7.682;2023-09-12T01:56:15;19.80;1.00
11650;DHT22;5881;48.522;7.682;2023-09-12T01:58:40;19.90;1.00
11650;DHT22;5881;48.522;7.682;2023-09-12T02:01:06;19.90;1.00
11650;DHT22;5881;48.522;7.682;2023-09-12T02:03:32;19.90;1.00
11650;DHT22;5881;48.522;7.682;2023-09-12T02:05:57;19.80;1.00
11650;DHT22;5881;48.522;7.682;2023-09-12T02:08:23;19.70;99.90
11650;DHT22;5881;48.522;7.682;2023-09-12T02:10:48;19.70;1.00
11650;DHT22;5881;48.522;7.682;2023-09-12T02:13:14;19.60;1.00
11650;DHT22;5881;48.522;7.682;2023-09-12T02:15:40;19.70;1.00
11650;DHT22;5881;48.522;7.682;2023-09-12T02:18:05;19.60;1.00
11650;DHT22;5881;48.522;7.682;2023-09-12T02:20:32;19.50;99.90
11650;DHT22;5881;48.522;7.682;2023-09-12T02:22:57;19.40;1.00
11650;DHT22;5881;48.522;7.682;2023-09-12T02:25:23;19.40;10.10
11650;DHT22;5881;48.522;7.682;2023-09-12T02:27:48;19.40;99.90
11650;DHT22;5881;48.522;7.682;2023-09-12T02:30:14;19.50;1.00
11650;DHT22;5881;48.522;7.682;2023-09-12T02:32:42;19.50;99.90
11650;DHT22;5881;48.522;7.682;2023-09-12T02:35:07;19.40;99.90
11650;DHT22;5881;48.522;7.682;2023-09-12T02:37:33;19.40;1.00
11650;DHT22;5881;48.522;7.682;2023-09-12T02:39:58;19.40;1.00
11650;DHT22;5881;48.522;7.682;2023-09-12T02:42:24;19.50;13.50
11650;DHT22;5881;48.522;7.682;2023-09-12T02:44:50;19.60;1.00
11650;DHT22;5881;48.522;7.682;2023-09-12T02:47:17;19.60;1.00
11650;DHT22;5881;48.522;7.682;2023-09-12T02:49:43;19.50;1.00
11650;DHT22;5881;48.522;7.682;2023-09-12T02:52:08;19.50;1.00
11650;DHT22;5881;48.522;7.682;2023-09-12T02:54:34;19.50;99.90
11650;DHT22;5881;48.522;7.682;2023-09-12T02:57:00;19.50;99.90
11650;DHT22;5881;48.522;7.682;2023-09-12T02:59:25;19.50;97.20
11650;DHT22;5881;48.522;7.682;2023-09-12T03:01:51;19.30;1.00
11650;DHT22;5881;48.522;7.682;2023-09-12T03:04:16;19.30;1.00
11650;DHT22;5881;48.522;7.682;2023-09-12T03:06:42;19.40;99.90
11650;DHT22;5881;48.522;7.682;2023-09-12T03:09:09;19.30;99.90
11650;DHT22;5881;48.522;7.682;2023-09-12T03:11:35;19.30;99.90
11650;DHT22;5881;48.522;7.682;2023-09-12T03:14:00;19.20;99.90
11650;DHT22;5881;48.522;7.682;2023-09-12T03:16:26;19.20;1.00
11650;DHT22;5881;48.522;7.682;2023-09-12T03:18:51;19.20;1.00
11650;DHT22;5881;48.522;7.682;2023-09-12T03:21:17;19.20;97.20
11650;DHT22;5881;48.522;7.682;2023-09-12T03:23:43;19.30;1.00
11650;DHT22;5881;48.522;7.682;2023-09-12T03:26:08;19.30;99.90
11650;DHT22;5881;48.522;7.682;2023-09-12T03:28:34;19.20;99.90
11650;DHT22;5881;48.522;7.682;2023-09-12T03:31:07;19.20;1.00
11650;DHT22;5881;48.522;7.682;2023-09-12T03:33:33;19.20;1.00
11650;DHT22;5881;48.522;7.682;2023-09-12T03:35:58;19.10;99.90
11650;DHT22;5881;48.522;7.682;2023-09-12T03:38:24;19.10;99.90
11650;DHT22;5881;48.522;7.682;2023-09-12T03:40:50;19.10;1.00
11650;DHT22;5881;48.522;7.682;2023-09-12T03:43:15;19.10;1.00
11650;DHT22;5881;48.522;7.682;2023-09-12T03:45:41;19.10;1.00
11650;DHT22;5881;48.522;7.682;2023-09-12T03:48:06;19.00;1.00
11650;DHT22;5881;48.522;7.682;2023-09-12T03:50:32;18.90;99.90
11650;DHT22;5881;48.522;7.682;2023-09-12T03:52:58;18.90;5.70
11650;DHT22;5881;48.522;7.682;2023-09-12T03:55:23;18.90;1.00
11650;DHT22;5881;48.522;7.682;2023-09-12T03:57:49;18.90;1.00
11650;DHT22;5881;48.522;7.682;2023-09-12T04:00:15;18.90;99.90
11650;DHT22;5881;48.522;7.682;2023-09-12T04:02:41;18.90;99.90
11650;DHT22;5881;48.522;7.682;2023-09-12T04:05:07;18.90;1.00
11650;DHT22;5881;48.522;7.682;2023-09-12T04:07:32;18.90;99.90
11650;DHT22;5881;48.522;7.682;2023-09-12T04:09:58;18.90;1.00
11650;DHT22;5881;48.522;7.682;2023-09-12T04:12:23;18.90;99.90
11650;DHT22;5881;48.522;7.682;2023-09-12T04:14:50;18.80;1.00
11650;DHT22;5881;48.522;7.682;2023-09-12T04:17:16;18.80;1.00
11650;DHT22;5881;48.522;7.682;2023-09-12T04:19:42;18.80;1.00
11650;DHT22;5881;48.522;7.682;2023-09-12T04:22:07;18.80;1.00
11650;DHT22;5881;48.522;7.682;2023-09-12T04:24:33;18.80;1.00
11650;DHT22;5881;48.522;7.682;2023-09-12T04:26:59;18.70;99.90
11650;DHT22;5881;48.522;7.682;2023-09-12T04:29:24;18.70;1.00
11650;DHT22;5881;48.522;7.682;2023-09-12T04:31:50;18.60;1.00
11650;DHT22;5881;48.522;7.682;2023-09-12T04:34:18;18.60;1.00
11650;DHT22;5881;48.522;7.682;2023-09-12T04:36:43;18.60;99.90
11650;DHT22;5881;48.522;7.682;2023-09-12T04:39:09;18.50;99.90
11650;DHT22;5881;48.522;7.682;2023-09-12T04:41:34;18.50;1.00
11650;DHT22;5881;48.522;7.682;2023-09-12T04:44:00;18.50;1.00
11650;DHT22;5881;48.522;7.682;2023-09-12T04:46:27;18.40;1.00
11650;DHT22;5881;48.522;7.682;2023-09-12T04:48:53;18.40;99.90
11650;DHT22;5881;48.522;7.682;2023-09-12T04:51:19;18.50;1.00
11650;DHT22;5881;48.522;7.682;2023-09-12T04:53:44;18.40;99.90
11650;DHT22;5881;48.522;7.682;2023-09-12T04:56:10;18.40;99.90
11650;DHT22;5881;48.522;7.682;2023-09-12T04:58:35;18.30;99.90
11650;DHT22;5881;48.522;7.682;2023-09-12T05:01:01;18.30;1.00
11650;DHT22;5881;48.522;7.682;2023-09-12T05:03:27;18.30;1.00
11650;DHT22;5881;48.522;7.682;2023-09-12T05:05:53;18.30;1.00
11650;DHT22;5881;48.522;7.682;2023-09-12T05:08:18;18.40;99.90
11650;DHT22;5881;48.522;7.682;2023-09-12T05:10:45;18.50;1.00
11650;DHT22;5881;48.522;7.682;2023-09-12T05:13:10;18.50;99.90
11650;DHT22;5881;48.522;7.682;2023-09-12T05:15:38;18.50;1.00
11650;DHT22;5881;48.522;7.682;2023-09-12T05:18:05;18.50;99.90
11650;DHT22;5881;48.522;7.682;2023-09-12T05:20:31;18.70;1.00
11650;DHT22;5881;48.522;7.682;2023-09-12T05:22:57;18.70;99.90
11650;DHT22;5881;48.522;7.682;2023-09-12T05:25:22;18.70;99.90
11650;DHT22;5881;48.522;7.682;2023-09-12T05:27:48;18.80;1.00
11650;DHT22;5881;48.522;7.682;2023-09-12T05:30:14;18.80;99.90
11650;DHT22;5881;48.522;7.682;2023-09-12T05:32:41;19.00;99.90
11650;DHT22;5881;48.522;7.682;2023-09-12T05:35:07;18.90;99.90
11650;DHT22;5881;48.522;7.682;2023-09-12T05:37:33;18.90;99.90
11650;DHT22;5881;48.522;7.682;2023-09-12T05:39:58;18.90;1.00
11650;DHT22;5881;48.522;7.682;2023-09-12T05:42:24;18.90;1.00
11650;DHT22;5881;48.522;7.682;2023-09-12T05:44:50;18.90;99.90
11650;DHT22;5881;48.522;7.682;2023-09-12T05:47:19;19.00;99.90
11650;DHT22;5881;48.522;7.682;2023-09-12T05:49:44;19.10;99.90
11650;DHT22;5881;48.522;7.682;2023-09-12T05:52:10;19.20;1.00
11650;DHT22;5881;48.522;7.682;2023-09-12T05:54:36;19.40;1.00
11650;DHT22;5881;48.522;7.682;2023-09-12T05:57:02;19.60;99.90
11650;DHT22;5881;48.522;7.682;2023-09-12T05:59:28;20.00;1.00
11650;DHT22;5881;48.522;7.682;2023-09-12T06:01:54;20.60;1.00
11650;DHT22;5881;48.522;7.682;2023-09-12T06:04:21;20.90;99.90
11650;DHT22;5881;48.522;7.682;2023-09-12T06:06:47;21.10;99.90
11650;DHT22;5881;48.522;7.682;2023-09-12T06:09:12;21.50;99.90
11650;DHT22;5881;48.522;7.682;2023-09-12T06:11:38;22.30;99.90
11650;DHT22;5881;48.522;7.682;2023-09-12T06:14:04;23.20;59.40
11650;DHT22;5881;48.522;7.682;2023-09-12T06:16:29;24.30;8.00
11650;DHT22;5881;48.522;7.682;2023-09-12T06:18:55;24.60;1.00
11650;DHT22;5881;48.522;7.682;2023-09-12T06:21:21;24.20;1.00
11650;DHT22;5881;48.522;7.682;2023-09-12T06:23:47;24.60;1.00
11650;DHT22;5881;48.522;7.682;2023-09-12T06:26:13;25.50;1.00
11650;DHT22;5881;48.522;7.682;2023-09-12T06:28:40;25.70;1.00
11650;DHT22;5881;48.522;7.682;2023-09-12T06:31:08;24.90;1.00
11650;DHT22;5881;48.522;7.682;2023-09-12T06:33:38;24.30;1.00
11650;DHT22;5881;48.522;7.682;2023-09-12T06:36:04;24.30;1.00
11650;DHT22;5881;48.522;7.682;2023-09-12T06:38:29;24.20;1.00
11650;DHT22;5881;48.522;7.682;2023-09-12T06:40:55;24.50;1.00
11650;DHT22;5881;48.522;7.682;2023-09-12T06:43:21;25.80;1.00
11650;DHT22;5881;48.522;7.682;2023-09-12T06:45:47;26.40;1.00
11650;DHT22;5881;48.522;7.682;2023-09-12T06:48:13;25.70;1.00
11650;DHT22;5881;48.522;7.682;2023-09-12T06:50:39;25.40;1.00
11650;DHT22;5881;48.522;7.682;2023-09-12T06:53:05;25.00;1.00
11650;DHT22;5881;48.522;7.682;2023-09-12T06:55:35;24.50;1.00
11650;DHT22;5881;48.522;7.682;2023-09-12T06:58:01;25.00;1.00
11650;DHT22;5881;48.522;7.682;2023-09-12T07:00:26;25.30;1.00
11650;DHT22;5881;48.522;7.682;2023-09-12T07:02:52;25.70;1.00
11650;DHT22;5881;48.522;7.682;2023-09-12T07:05:17;25.80;1.00
11650;DHT22;5881;48.522;7.682;2023-09-12T07:07:43;25.00;1.00
11650;DHT22;5881;48.522;7.682;2023-09-12T07:10:09;24.30;1.00
11650;DHT22;5881;48.522;7.682;2023-09-12T07:12:34;23.80;1.00
11650;DHT22;5881;48.522;7.682;2023-09-12T07:15:00;24.00;1.00
11650;DHT22;5881;48.522;7.682;2023-09-12T07:17:28;25.00;99.90
11650;DHT22;5881;48.522;7.682;2023-09-12T07:19:53;26.20;1.00
11650;DHT22;5881;48.522;7.682;2023-09-12T07:22:19;27.10;1.00
11650;DHT22;5881;48.522;7.682;2023-09-12T07:24:45;27.40;1.00
11650;DHT22;5881;48.522;7.682;2023-09-12T07:27:10;27.40;1.00
11650;DHT22;5881;48.522;7.682;2023-09-12T07:29:36;27.60;1.00
11650;DHT22;5881;48.522;7.682;2023-09-12T07:32:02;27.60;1.00
11650;DHT22;5881;48.522;7.682;2023-09-12T07:34:27;27.40;1.00
11650;DHT22;5881;48.522;7.682;2023-09-12T07:36:53;27.80;1.00
11650;DHT22;5881;48.522;7.682;2023-09-12T07:39:19;28.60;1.00
11650;DHT22;5881;48.522;7.682;2023-09-12T07:41:45;28.30;1.00
11650;DHT22;5881;48.522;7.682;2023-09-12T07:44:11;28.50;1.00
11650;DHT22;5881;48.522;7.682;2023-09-12T07:46:38;28.10;1.00
11650;DHT22;5881;48.522;7.682;2023-09-12T07:49:03;28.50;1.00
11650;DHT22;5881;48.522;7.682;2023-09-12T07:51:29;29.10;1.00
11650;DHT22;5881;48.522;7.682;2023-09-12T07:53:54;28.90;1.00
11650;DHT22;5881;48.522;7.682;2023-09-12T07:56:20;28.90;1.00
11650;DHT22;5881;48.522;7.682;2023-09-12T07:58:46;28.20;1.00
11650;DHT22;5881;48.522;7.682;2023-09-12T08:01:12;28.70;1.00
11650;DHT22;5881;48.522;7.682;2023-09-12T08:03:39;29.10;1.00
11650;DHT22;5881;48.522;7.682;2023-09-12T08:06:05;29.40;1.00
11650;DHT22;5881;48.522;7.682;2023-09-12T08:08:31;29.60;1.00
11650;DHT22;5881;48.522;7.682;2023-09-12T08:10:57;29.80;1.00
11650;DHT22;5881;48.522;7.682;2023-09-12T08:13:27;29.70;1.00
11650;DHT22;5881;48.522;7.682;2023-09-12T08:15:53;30.30;1.00
11650;DHT22;5881;48.522;7.682;2023-09-12T08:18:19;30.70;1.00
11650;DHT22;5881;48.522;7.682;2023-09-12T08:20:44;31.50;1.00
11650;DHT22;5881;48.522;7.682;2023-09-12T08:23:10;31.60;1.00
11650;DHT22;5881;48.522;7.682;2023-09-12T08:25:36;31.30;1.00
11650;DHT22;5881;48.522;7.682;2023-09-12T08:28:01;30.60;1.00
11650;DHT22;5881;48.522;7.682;2023-09-12T08:30:27;31.50;1.00
11650;DHT22;5881;48.522;7.682;2023-09-12T08:32:56;31.40;1.00
11650;DHT22;5881;48.522;7.682;2023-09-12T08:35:21;32.40;1.00
11650;DHT22;5881;48.522;7.682;2023-09-12T08:37:47;32.50;1.00
11650;DHT22;5881;48.522;7.682;2023-09-12T08:40:13;32.70;1.00
11650;DHT22;5881;48.522;7.682;2023-09-12T08:42:43;33.30;1.00
11650;DHT22;5881;48.522;7.682;2023-09-12T08:45:17;33.20;1.00
11650;DHT22;5881;48.522;7.682;2023-09-12T08:47:45;33.10;1.00
11650;DHT22;5881;48.522;7.682;2023-09-12T08:50:12;32.70;1.00
11650;DHT22;5881;48.522;7.682;2023-09-12T08:52:41;33.40;1.00
11650;DHT22;5881;48.522;7.682;2023-09-12T08:55:08;33.70;1.00
11650;DHT22;5881;48.522;7.682;2023-09-12T08:57:36;33.40;1.00
11650;DHT22;5881;48.522;7.682;2023-09-12T09:00:03;34.10;1.00
11650;DHT22;5881;48.522;7.682;2023-09-12T09:02:37;34.80;1.00
11650;DHT22;5881;48.522;7.682;2023-09-12T09:05:04;33.90;1.00
11650;DHT22;5881;48.522;7.682;2023-09-12T09:07:38;31.70;1.00
11650;DHT22;5881;48.522;7.682;2023-09-12T09:10:06;31.90;1.00
11650;DHT22;5881;48.522;7.682;2023-09-12T09:12:33;32.00;1.00
11650;DHT22;5881;48.522;7.682;2023-09-12T09:14:59;32.00;1.00
11650;DHT22;5881;48.522;7.682;2023-09-12T09:17:44;32.40;1.00
11650;DHT22;5881;48.522;7.682;2023-09-12T09:20:31;32.40;1.00
11650;DHT22;5881;48.522;7.682;2023-09-12T09:23:08;33.30;1.00
11650;DHT22;5881;48.522;7.682;2023-09-12T09:25:40;33.10;1.00
11650;DHT22;5881;48.522;7.682;2023-09-12T09:28:26;32.60;1.00
11650;DHT22;5881;48.522;7.682;2023-09-12T09:30:52;32.70;1.00
11650;DHT22;5881;48.522;7.682;2023-09-12T09:33:20;34.20;1.00
11650;DHT22;5881;48.522;7.682;2023-09-12T09:35:48;35.40;1.00
11650;DHT22;5881;48.522;7.682;2023-09-12T09:38:14;36.10;1.00
11650;DHT22;5881;48.522;7.682;2023-09-12T09:40:42;36.70;1.00
11650;DHT22;5881;48.522;7.682;2023-09-12T09:43:09;36.30;1.00
11650;DHT22;5881;48.522;7.682;2023-09-12T09:45:43;33.90;1.00
11650;DHT22;5881;48.522;7.682;2023-09-12T09:48:10;33.50;1.00
11650;DHT22;5881;48.522;7.682;2023-09-12T09:50:35;34.40;1.00
11650;DHT22;5881;48.522;7.682;2023-09-12T09:53:02;33.70;1.00
11650;DHT22;5881;48.522;7.682;2023-09-12T09:55:30;34.50;1.00
11650;DHT22;5881;48.522;7.682;2023-09-12T09:57:56;34.00;1.00
11650;DHT22;5881;48.522;7.682;2023-09-12T10:00:25;34.50;1.00
11650;DHT22;5881;48.522;7.682;2023-09-12T10:02:52;34.60;1.00
11650;DHT22;5881;48.522;7.682;2023-09-12T10:05:18;34.40;1.00
11650;DHT22;5881;48.522;7.682;2023-09-12T10:07:48;34.70;1.00
11650;DHT22;5881;48.522;7.682;2023-09-12T10:10:17;36.00;1.00
11650;DHT22;5881;48.522;7.682;2023-09-12T10:12:49;36.40;1.00
11650;DHT22;5881;48.522;7.682;2023-09-12T10:15:18;34.80;1.00
11650;DHT22;5881;48.522;7.682;2023-09-12T10:17:47;34.40;1.00
11650;DHT22;5881;48.522;7.682;2023-09-12T10:20:16;34.80;1.00
11650;DHT22;5881;48.522;7.682;2023-09-12T10:22:56;35.50;1.00
11650;DHT22;5881;48.522;7.682;2023-09-12T10:25:24;36.60;1.00
11650;DHT22;5881;48.522;7.682;2023-09-12T10:27:52;36.80;1.00
11650;DHT22;5881;48.522;7.682;2023-09-12T10:30:18;37.50;1.00
11650;DHT22;5881;48.522;7.682;2023-09-12T10:32:45;37.70;1.00
11650;DHT22;5881;48.522;7.682;2023-09-12T10:35:12;37.20;1.00
11650;DHT22;5881;48.522;7.682;2023-09-12T10:37:38;37.10;1.00
11650;DHT22;5881;48.522;7.682;2023-09-12T10:40:08;36.30;1.00
11650;DHT22;5881;48.522;7.682;2023-09-12T10:42:35;37.30;1.00
11650;DHT22;5881;48.522;7.682;2023-09-12T10:45:04;37.50;1.00
11650;DHT22;5881;48.522;7.682;2023-09-12T10:47:32;36.20;1.00
11650;DHT22;5881;48.522;7.682;2023-09-12T10:49:58;35.00;1.00
11650;DHT22;5881;48.522;7.682;2023-09-12T10:52:27;35.30;1.00
11650;DHT22;5881;48.522;7.682;2023-09-12T10:54:54;35.40;1.00
11650;DHT22;5881;48.522;7.682;2023-09-12T10:57:20;34.90;1.00
11650;DHT22;5881;48.522;7.682;2023-09-12T11:02:42;36.20;1.00
11650;DHT22;5881;48.522;7.682;2023-09-12T11:05:50;36.10;1.00
11650;DHT22;5881;48.522;7.682;2023-09-12T11:08:16;36.90;1.00
11650;DHT22;5881;48.522;7.682;2023-09-12T11:10:42;36.80;1.00
11650;DHT22;5881;48.522;7.682;2023-09-12T11:13:17;37.30;1.00
11650;DHT22;5881;48.522;7.682;2023-09-12T11:16:15;37.00;1.00
11650;DHT22;5881;48.522;7.682;2023-09-12T11:19:14;37.90;1.00
11650;DHT22;5881;48.522;7.682;2023-09-12T11:21:47;37.30;1.00
11650;DHT22;5881;48.522;7.682;2023-09-12T11:24:14;37.80;1.00
11650;DHT22;5881;48.522;7.682;2023-09-12T11:26:53;36.30;1.00
11650;DHT22;5881;48.522;7.682;2023-09-12T11:29:19;36.50;1.00
11650;DHT22;5881;48.522;7.682;2023-09-12T11:31:55;36.00;1.00
11650;DHT22;5881;48.522;7.682;2023-09-12T11:34:25;36.10;1.00
11650;DHT22;5881;48.522;7.682;2023-09-12T11:36:55;35.30;1.00
11650;DHT22;5881;48.522;7.682;2023-09-12T11:39:23;35.40;1.00
11650;DHT22;5881;48.522;7.682;2023-09-12T11:41:50;34.70;1.00
11650;DHT22;5881;48.522;7.682;2023-09-12T11:44:17;35.10;1.00
11650;DHT22;5881;48.522;7.682;2023-09-12T11:46:43;34.90;1.00
11650;DHT22;5881;48.522;7.682;2023-09-12T11:49:11;34.70;1.00
11650;DHT22;5881;48.522;7.682;2023-09-12T11:51:54;34.80;1.00
11650;DHT22;5881;48.522;7.682;2023-09-12T11:54:24;34.40;1.00
11650;DHT22;5881;48.522;7.682;2023-09-12T11:56:50;34.30;1.00
11650;DHT22;5881;48.522;7.682;2023-09-12T11:59:22;34.30;1.00
11650;DHT22;5881;48.522;7.682;2023-09-12T12:01:48;35.00;1.00
11650;DHT22;5881;48.522;7.682;2023-09-12T12:04:14;34.60;1.00
11650;DHT22;5881;48.522;7.682;2023-09-12T12:06:40;33.90;1.00
11650;DHT22;5881;48.522;7.682;2023-09-12T12:09:06;33.80;1.00
11650;DHT22;5881;48.522;7.682;2023-09-12T12:11:32;33.30;1.00
11650;DHT22;5881;48.522;7.682;2023-09-12T12:13:58;32.90;1.00
11650;DHT22;5881;48.522;7.682;2023-09-12T12:16:25;33.00;1.00
11650;DHT22;5881;48.522;7.682;2023-09-12T12:18:51;33.10;1.00
11650;DHT22;5881;48.522;7.682;2023-09-12T12:21:21;32.90;1.00
11650;DHT22;5881;48.522;7.682;2023-09-12T12:23:46;32.70;1.00
11650;DHT22;5881;48.522;7.682;2023-09-12T12:26:22;32.60;1.00
11650;DHT22;5881;48.522;7.682;2023-09-12T12:28:49;32.30;1.00
11650;DHT22;5881;48.522;7.682;2023-09-12T12:31:15;32.20;1.00
11650;DHT22;5881;48.522;7.682;2023-09-12T12:33:48;32.10;1.00
11650;DHT22;5881;48.522;7.682;2023-09-12T12:36:13;32.70;1.00
11650;DHT22;5881;48.522;7.682;2023-09-12T12:38:39;32.80;1.00
11650;DHT22;5881;48.522;7.682;2023-09-12T12:41:05;32.70;1.00
11650;DHT22;5881;48.522;7.682;2023-09-12T12:43:31;32.60;1.00
11650;DHT22;5881;48.522;7.682;2023-09-12T12:45:58;32.40;1.00
11650;DHT22;5881;48.522;7.682;2023-09-12T12:48:34;32.80;1.00
11650;DHT22;5881;48.522;7.682;2023-09-12T12:51:14;32.80;1.00
11650;DHT22;5881;48.522;7.682;2023-09-12T12:53:48;33.20;1.00
11650;DHT22;5881;48.522;7.682;2023-09-12T12:56:17;33.20;1.00
11650;DHT22;5881;48.522;7.682;2023-09-12T12:58:51;32.70;1.00
11650;DHT22;5881;48.522;7.682;2023-09-12T13:01:18;33.40;1.00
11650;DHT22;5881;48.522;7.682;2023-09-12T13:03:44;33.30;1.00
11650;DHT22;5881;48.522;7.682;2023-09-12T13:06:10;33.00;1.00
11650;DHT22;5881;48.522;7.682;2023-09-12T13:08:44;33.30;1.00
11650;DHT22;5881;48.522;7.682;2023-09-12T13:11:11;33.10;1.00
11650;DHT22;5881;48.522;7.682;2023-09-12T13:13:38;33.30;1.00
11650;DHT22;5881;48.522;7.682;2023-09-12T13:16:08;33.10;1.00
11650;DHT22;5881;48.522;7.682;2023-09-12T13:18:38;33.50;1.00
11650;DHT22;5881;48.522;7.682;2023-09-12T13:21:05;33.10;1.00
11650;DHT22;5881;48.522;7.682;2023-09-12T13:23:30;32.90;1.00
11650;DHT22;5881;48.522;7.682;2023-09-12T13:25:57;32.80;1.00
11650;DHT22;5881;48.522;7.682;2023-09-12T13:28:23;32.80;1.00
11650;DHT22;5881;48.522;7.682;2023-09-12T13:30:54;32.70;1.00
11650;DHT22;5881;48.522;7.682;2023-09-12T13:33:20;32.70;1.00
11650;DHT22;5881;48.522;7.682;2023-09-12T13:35:49;32.40;1.00
11650;DHT22;5881;48.522;7.682;2023-09-12T13:38:16;32.50;1.00
11650;DHT22;5881;48.522;7.682;2023-09-12T13:40:44;32.60;1.00
11650;DHT22;5881;48.522;7.682;2023-09-12T13:43:10;32.40;1.00
11650;DHT22;5881;48.522;7.682;2023-09-12T13:45:36;32.70;1.00
11650;DHT22;5881;48.522;7.682;2023-09-12T13:48:03;33.00;1.00
11650;DHT22;5881;48.522;7.682;2023-09-12T13:50:29;32.50;1.00
11650;DHT22;5881;48.522;7.682;2023-09-12T13:52:56;32.40;1.00
11650;DHT22;5881;48.522;7.682;2023-09-12T13:55:22;32.20;1.00
11650;DHT22;5881;48.522;7.682;2023-09-12T13:57:48;32.50;1.00
11650;DHT22;5881;48.522;7.682;2023-09-12T14:00:14;32.60;1.00
11650;DHT22;5881;48.522;7.682;2023-09-12T14:02:40;32.20;1.00
11650;DHT22;5881;48.522;7.682;2023-09-12T14:05:05;32.20;1.00
11650;DHT22;5881;48.522;7.682;2023-09-12T14:07:31;32.10;1.00
11650;DHT22;5881;48.522;7.682;2023-09-12T14:09:57;32.00;1.00
11650;DHT22;5881;48.522;7.682;2023-09-12T14:12:23;31.90;1.00
11650;DHT22;5881;48.522;7.682;2023-09-12T14:14:49;32.10;1.00
11650;DHT22;5881;48.522;7.682;2023-09-12T14:17:15;32.20;1.00
11650;DHT22;5881;48.522;7.682;2023-09-12T14:19:40;32.20;1.00
11650;DHT22;5881;48.522;7.682;2023-09-12T14:22:06;32.10;1.00
11650;DHT22;5881;48.522;7.682;2023-09-12T14:24:32;31.90;1.00
11650;DHT22;5881;48.522;7.682;2023-09-12T14:26:58;32.00;1.00
11650;DHT22;5881;48.522;7.682;2023-09-12T14:29:24;32.20;1.00
11650;DHT22;5881;48.522;7.682;2023-09-12T14:31:52;32.10;1.00
11650;DHT22;5881;48.522;7.682;2023-09-12T14:34:23;32.20;1.00
11650;DHT22;5881;48.522;7.682;2023-09-12T14:36:52;32.20;1.00
11650;DHT22;5881;48.522;7.682;2023-09-12T14:39:17;32.10;1.00
11650;DHT22;5881;48.522;7.682;2023-09-12T14:41:43;32.10;1.00
11650;DHT22;5881;48.522;7.682;2023-09-12T14:44:09;32.00;1.00
11650;DHT22;5881;48.522;7.682;2023-09-12T14:46:35;32.30;1.00
11650;DHT22;5881;48.522;7.682;2023-09-12T14:49:01;32.20;1.00
11650;DHT22;5881;48.522;7.682;2023-09-12T14:51:28;32.20;1.00
11650;DHT22;5881;48.522;7.682;2023-09-12T14:53:53;32.30;1.00
11650;DHT22;5881;48.522;7.682;2023-09-12T14:56:19;32.20;1.00
11650;DHT22;5881;48.522;7.682;2023-09-12T14:58:45;32.30;1.00
11650;DHT22;5881;48.522;7.682;2023-09-12T15:01:10;32.20;1.00
11650;DHT22;5881;48.522;7.682;2023-09-12T15:03:36;32.30;1.00
11650;DHT22;5881;48.522;7.682;2023-09-12T15:06:05;32.20;1.00
11650;DHT22;5881;48.522;7.682;2023-09-12T15:08:32;32.30;1.00
11650;DHT22;5881;48.522;7.682;2023-09-12T15:10:57;32.20;1.00
11650;DHT22;5881;48.522;7.682;2023-09-12T15:13:23;32.10;1.00
11650;DHT22;5881;48.522;7.682;2023-09-12T15:15:49;32.00;1.00
11650;DHT22;5881;48.522;7.682;2023-09-12T15:18:14;32.00;1.00
11650;DHT22;5881;48.522;7.682;2023-09-12T15:20:40;32.10;1.00
11650;DHT22;5881;48.522;7.682;2023-09-12T15:23:05;32.20;1.00
11650;DHT22;5881;48.522;7.682;2023-09-12T15:25:31;32.00;1.00
11650;DHT22;5881;48.522;7.682;2023-09-12T15:27:58;32.00;1.00
11650;DHT22;5881;48.522;7.682;2023-09-12T15:30:24;31.90;1.00
11650;DHT22;5881;48.522;7.682;2023-09-12T15:32:49;31.80;1.00
11650;DHT22;5881;48.522;7.682;2023-09-12T15:35:15;31.70;1.00
11650;DHT22;5881;48.522;7.682;2023-09-12T15:37:41;31.70;1.00
11650;DHT22;5881;48.522;7.682;2023-09-12T15:40:07;31.60;1.00
11650;DHT22;5881;48.522;7.682;2023-09-12T15:42:33;31.70;1.00
11650;DHT22;5881;48.522;7.682;2023-09-12T15:44:58;31.70;1.00
11650;DHT22;5881;48.522;7.682;2023-09-12T15:47:24;31.60;1.00
11650;DHT22;5881;48.522;7.682;2023-09-12T15:49:50;31.60;1.00
11650;DHT22;5881;48.522;7.682;2023-09-12T15:52:15;31.70;1.00
11650;DHT22;5881;48.522;7.682;2023-09-12T15:54:41;31.70;1.00
11650;DHT22;5881;48.522;7.682;2023-09-12T15:57:06;31.70;1.00
11650;DHT22;5881;48.522;7.682;2023-09-12T15:59:32;31.60;1.00
11650;DHT22;5881;48.522;7.682;2023-09-12T16:01:58;31.60;1.00
11650;DHT22;5881;48.522;7.682;2023-09-12T16:04:24;31.60;1.00
11650;DHT22;5881;48.522;7.682;2023-09-12T16:06:52;31.40;1.00